< < Back
Terminal Aerodrome Forecast


Current Version              Previous Versions:   1  2  3  4  5  6  7  8  9  

Terminal Aerodrome Forecast

856
FTUS42 KILM 270605 CCA
TAFFLO
TAF COR
KFLO 270605Z 2706/2806 00000KT P6SM SCT250
      TEMPO 2708/2712 3SM BR SKC
     FM271300 09004KT P6SM SCT035 BKN250
     FM272000 16007KT P6SM SCT040 BKN250
     FM280000 19003KT P6SM BKN150=

Latest METAR

864
SAUS70 KWBC 271400 RRT
MTRFLO
METAR KFLO 271353Z 18003KT 9SM OVC008 26/23 A3013 RMK AO2 SLP199
T02610228


USA.gov is the U.S. government's official web portal to all federal, state and local government web resources and services.